Terminal Aerodrome Forecast
Issued by NWS Cleveland, OH

Home | Current Version | Previous Version | Graphics & Text | Print | Product List | Glossary On
Versions: 1 2 3 4 5 6 7 8 9 10 11 12 13 14 15 16 17 18 19 20 21 22 23 24
680
FTUS41 KCLE 131128
TAFERI
TAF
KERI 131128Z 1312/1412 33015G25KT 6SM -SHSN OVC035
      TEMPO 1312/1314 4SM -SHSN
     FM131400 31012G22KT 4SM -SHSN OVC025
      TEMPO 1316/1320 1SM -SHSN OVC015
     FM132300 32010KT 6SM -SHSN BKN035
     FM140300 30005KT P6SM BKN070=

USA.gov is the U.S. government's official web portal to all federal, state and local government web resources and services.